Time;durP1;ratioP1;P1;durP2;ratioP2;P2;SDS_P1;SDS_P2;PMS_P1;PMS_P2;Temp;Humidity;BMP_temperature;BMP_pressure;BME280_temperature;BME280_humidity;BME280_pressure;Samples;Min_cycle;Max_cycle;Signal;HPM_P1;HPM_P2
2023/04/22 00:02:23;;;;;;;;;;;11.80;65.70;;;;;;5030932;28;19927;-76
2023/04/22 00:04:49;;;;;;;;;;;11.70;65.70;;;;;;5033225;28;20646;-76
2023/04/22 00:07:14;;;;;;;;;;;11.70;65.70;;;;;;5016576;28;19920;-76
2023/04/22 00:09:40;;;;;;;;;;;11.70;65.70;;;;;;5033515;28;20008;-76
2023/04/22 00:12:06;;;;;;;;;;;11.70;65.80;;;;;;5002289;28;19936;-77
2023/04/22 00:14:31;;;;;;;;;;;11.70;65.80;;;;;;5012123;28;19921;-76
2023/04/22 00:16:57;;;;;;;;;;;11.70;65.80;;;;;;5017285;28;19925;-76
2023/04/22 00:19:22;;;;;;;;;;;11.70;65.80;;;;;;5014869;28;20516;-76
2023/04/22 00:21:47;;;;;;;;;;;11.60;65.80;;;;;;5016944;28;19920;-76
2023/04/22 00:24:13;;;;;;;;;;;11.60;65.80;;;;;;5014514;28;19932;-76
2023/04/22 00:26:38;;;;;;;;;;;11.60;65.80;;;;;;5013591;28;20039;-76
2023/04/22 00:29:04;;;;;;;;;;;11.60;65.90;;;;;;5036253;28;20501;-77
2023/04/22 00:31:29;;;;;;;;;;;11.50;65.90;;;;;;5016016;28;19929;-76
2023/04/22 00:33:55;;;;;;;;;;;11.50;65.90;;;;;;5034696;28;19927;-75
2023/04/22 00:36:20;;;;;;;;;;;11.50;65.90;;;;;;5030529;28;20048;-75
2023/04/22 00:38:49;;;;;;;;;;;11.50;65.90;;;;;;5035199;28;20383;-75
2023/04/22 00:41:15;;;;;;;;;;;11.50;66.00;;;;;;5017611;28;19927;-76
2023/04/22 00:43:41;;;;;;;;;;;11.50;66.00;;;;;;5035296;28;19944;-75
2023/04/22 00:46:06;;;;;;;;;;;11.40;66.00;;;;;;5014219;28;19929;-74
2023/04/22 00:48:32;;;;;;;;;;;11.40;66.00;;;;;;5014785;28;20477;-75
2023/04/22 00:50:57;;;;;;;;;;;11.40;66.00;;;;;;5012137;28;19974;-76
2023/04/22 00:53:23;;;;;;;;;;;11.30;66.00;;;;;;5032962;28;20015;-76
2023/04/22 00:55:48;;;;;;;;;;;11.40;66.10;;;;;;5033163;28;19921;-76
2023/04/22 00:58:14;;;;;;;;;;;11.30;66.10;;;;;;5014371;28;19924;-76
2023/04/22 01:00:39;;;;;;;;;;;11.30;66.10;;;;;;5016346;28;19999;-75
2023/04/22 01:03:05;;;;;;;;;;;11.30;66.10;;;;;;5036248;28;19971;-75
2023/04/22 01:05:31;;;;;;;;;;;11.30;66.20;;;;;;5001570;28;19944;-76
2023/04/22 01:07:56;;;;;;;;;;;11.30;66.20;;;;;;5002552;28;19935;-75
2023/04/22 01:10:22;;;;;;;;;;;11.30;66.20;;;;;;5013935;28;19994;-75
2023/04/22 01:12:47;;;;;;;;;;;11.30;66.20;;;;;;5027712;28;19971;-75
2023/04/22 01:15:13;;;;;;;;;;;11.20;66.10;;;;;;5009469;28;20012;-75
2023/04/22 01:17:38;;;;;;;;;;;11.20;66.20;;;;;;5029600;28;19921;-76
2023/04/22 01:20:04;;;;;;;;;;;11.20;66.20;;;;;;5012198;28;19964;-75
2023/04/22 01:22:32;;;;;;;;;;;11.20;66.20;;;;;;5026715;28;19922;-75
2023/04/22 01:24:57;;;;;;;;;;;11.20;66.30;;;;;;4998055;28;19970;-75
2023/04/22 01:27:23;;;;;;;;;;;11.20;66.30;;;;;;5007295;28;20564;-75
2023/04/22 01:29:49;;;;;;;;;;;11.20;66.30;;;;;;5026830;28;19966;-76
2023/04/22 01:32:14;;;;;;;;;;;11.10;66.30;;;;;;5013194;28;19936;-76
2023/04/22 01:37:24;;;;;;;;;;;11.10;66.30;;;;;;5024329;28;20028;-75
2023/04/22 01:39:49;;;;;;;;;;;11.10;66.50;;;;;;4996971;28;20624;-75
2023/04/22 01:42:15;;;;;;;;;;;11.10;66.40;;;;;;5012597;28;19928;-75
2023/04/22 01:44:40;;;;;;;;;;;11.10;66.40;;;;;;5011937;28;19983;-76
2023/04/22 01:47:06;;;;;;;;;;;11.00;66.40;;;;;;5012469;28;19921;-76
2023/04/22 01:49:32;;;;;;;;;;;11.00;66.40;;;;;;5026436;28;19975;-76
2023/04/22 01:51:57;;;;;;;;;;;11.00;66.50;;;;;;5009541;28;20363;-75
2023/04/22 01:54:23;;;;;;;;;;;11.00;66.50;;;;;;5025065;28;19932;-75
2023/04/22 01:56:49;;;;;;;;;;;11.00;66.50;;;;;;5011128;28;19955;-75
2023/04/22 01:59:15;;;;;;;;;;;11.00;66.50;;;;;;5014008;28;19925;-76
2023/04/22 02:01:40;;;;;;;;;;;10.90;66.50;;;;;;5026710;28;20438;-76
2023/04/22 02:04:06;;;;;;;;;;;10.90;66.50;;;;;;5012330;28;19928;-76
2023/04/22 02:06:31;;;;;;;;;;;10.90;66.50;;;;;;5010737;28;19921;-76
2023/04/22 02:08:57;;;;;;;;;;;10.90;66.50;;;;;;5011419;28;19925;-76
2023/04/22 02:11:22;;;;;;;;;;;10.90;67.20;;;;;;4997312;28;20501;-76
2023/04/22 02:13:48;;;;;;;;;;;10.90;66.60;;;;;;5026565;28;20007;-75
2023/04/22 02:16:14;;;;;;;;;;;10.90;66.60;;;;;;5019662;28;20004;-76
2023/04/22 02:18:39;;;;;;;;;;;10.80;66.60;;;;;;5011572;28;19927;-75
2023/04/22 02:21:05;;;;;;;;;;;10.80;66.60;;;;;;5014127;28;19929;-75
2023/04/22 02:23:30;;;;;;;;;;;10.80;66.60;;;;;;5012395;28;19963;-76
2023/04/22 02:25:56;;;;;;;;;;;10.80;66.70;;;;;;5027099;28;19925;-76
2023/04/22 02:28:21;;;;;;;;;;;10.80;67.50;;;;;;5013571;28;19921;-76
2023/04/22 02:30:47;;;;;;;;;;;10.80;66.70;;;;;;5011496;28;19921;-75
2023/04/22 02:33:12;;;;;;;;;;;10.80;66.70;;;;;;5014760;28;20292;-76
2023/04/22 02:35:38;;;;;;;;;;;10.70;66.70;;;;;;5031895;28;19921;-76
2023/04/22 02:38:03;;;;;;;;;;;10.70;66.70;;;;;;5014292;28;20382;-75
2023/04/22 02:40:29;;;;;;;;;;;10.70;66.80;;;;;;5017139;28;19921;-76
2023/04/22 02:42:54;;;;;;;;;;;10.70;66.80;;;;;;5007119;28;19932;-76
2023/04/22 02:45:20;;;;;;;;;;;10.60;66.70;;;;;;5013299;28;19955;-75
2023/04/22 02:47:45;;;;;;;;;;;10.60;66.80;;;;;;5016070;28;19951;-75
2023/04/22 02:50:11;;;;;;;;;;;10.60;66.80;;;;;;5030250;28;20383;-76
2023/04/22 02:52:36;;;;;;;;;;;10.60;66.80;;;;;;5014167;28;20012;-76
2023/04/22 02:55:02;;;;;;;;;;;10.60;66.90;;;;;;5015818;28;20299;-75
2023/04/22 02:57:28;;;;;;;;;;;10.50;66.80;;;;;;5018062;28;19955;-75
2023/04/22 02:59:53;;;;;;;;;;;10.50;66.80;;;;;;5015734;28;19925;-75
2023/04/22 03:02:18;;;;;;;;;;;10.50;66.90;;;;;;5014978;28;19928;-76
2023/04/22 03:04:44;;;;;;;;;;;10.50;66.90;;;;;;5028649;28;19953;-76
2023/04/22 03:07:09;;;;;;;;;;;10.50;66.90;;;;;;5015485;28;19925;-75
2023/04/22 03:09:35;;;;;;;;;;;10.50;67.00;;;;;;5026889;28;19921;-75
2023/04/22 03:12:02;;;;;;;;;;;10.50;67.00;;;;;;5019180;28;19947;-75
2023/04/22 03:14:27;;;;;;;;;;;10.50;67.00;;;;;;5032237;28;19982;-75
2023/04/22 03:16:53;;;;;;;;;;;10.40;67.40;;;;;;5033939;28;19924;-76
2023/04/22 03:19:19;;;;;;;;;;;10.40;67.00;;;;;;5016639;28;19950;-76
2023/04/22 03:21:44;;;;;;;;;;;10.40;67.00;;;;;;5019848;28;19928;-75
2023/04/22 03:24:10;;;;;;;;;;;10.40;67.00;;;;;;5016680;28;19990;-75
2023/04/22 03:26:35;;;;;;;;;;;10.40;67.10;;;;;;5034827;28;19921;-75
2023/04/22 03:29:01;;;;;;;;;;;10.40;67.10;;;;;;5034401;28;19935;-76
2023/04/22 03:31:26;;;;;;;;;;;10.40;67.10;;;;;;5034187;28;19925;-76
2023/04/22 03:33:52;;;;;;;;;;;10.40;67.20;;;;;;5019025;28;19920;-76
2023/04/22 03:36:17;;;;;;;;;;;10.40;67.20;;;;;;5018424;28;19973;-75
2023/04/22 03:38:42;;;;;;;;;;;10.30;67.10;;;;;;5031755;28;19921;-75
2023/04/22 03:41:08;;;;;;;;;;;10.30;67.90;;;;;;5031765;28;20015;-76
2023/04/22 03:43:33;;;;;;;;;;;10.30;67.20;;;;;;5018344;28;20252;-76
2023/04/22 03:45:59;;;;;;;;;;;10.30;67.20;;;;;;5014859;28;19928;-75
2023/04/22 03:48:24;;;;;;;;;;;10.30;67.30;;;;;;5014677;28;19944;-75
2023/04/22 03:50:50;;;;;;;;;;;10.30;67.30;;;;;;5013853;28;20044;-75
2023/04/22 03:53:15;;;;;;;;;;;10.20;67.20;;;;;;5036464;28;19928;-75
2023/04/22 03:55:41;;;;;;;;;;;10.20;67.30;;;;;;5031395;28;19971;-75
2023/04/22 03:58:06;;;;;;;;;;;10.20;68.10;;;;;;5033405;28;19925;-75
2023/04/22 04:00:32;;;;;;;;;;;10.20;67.30;;;;;;5033299;28;19921;-76
2023/04/22 04:02:57;;;;;;;;;;;10.20;67.30;;;;;;5018319;28;19920;-77
2023/04/22 04:05:23;;;;;;;;;;;10.20;67.40;;;;;;5015281;28;20622;-77
2023/04/22 04:07:48;;;;;;;;;;;10.20;67.40;;;;;;5015448;28;19925;-76
2023/04/22 04:10:13;;;;;;;;;;;10.10;67.30;;;;;;5017342;28;20598;-76
2023/04/22 04:12:39;;;;;;;;;;;10.10;67.40;;;;;;5031326;28;19921;-76
2023/04/22 04:15:05;;;;;;;;;;;10.10;67.40;;;;;;5016473;28;19978;-76
2023/04/22 04:17:30;;;;;;;;;;;10.10;67.50;;;;;;5036601;28;20405;-76
2023/04/22 04:19:56;;;;;;;;;;;10.10;67.50;;;;;;5032356;28;19931;-76
2023/04/22 04:22:21;;;;;;;;;;;10.10;67.50;;;;;;5017545;28;19948;-76
2023/04/22 04:24:47;;;;;;;;;;;10.00;67.40;;;;;;5033139;28;19921;-75
2023/04/22 04:27:13;;;;;;;;;;;10.10;67.50;;;;;;5036606;28;19931;-77
2023/04/22 04:29:40;;;;;;;;;;;10.00;67.50;;;;;;5033896;28;19928;-76
2023/04/22 04:32:07;;;;;;;;;;;10.00;67.50;;;;;;5015779;28;19924;-76
2023/04/22 04:34:35;;;;;;;;;;;10.00;67.50;;;;;;5032474;28;20399;-75
2023/04/22 04:37:01;;;;;;;;;;;10.00;67.50;;;;;;5017006;28;20470;-76
2023/04/22 04:39:27;;;;;;;;;;;10.00;67.50;;;;;;5013067;28;20395;-76
2023/04/22 04:41:54;;;;;;;;;;;10.00;67.50;;;;;;5032315;28;19932;-76
2023/04/22 04:44:19;;;;;;;;;;;9.90;67.50;;;;;;5010523;28;19921;-75
2023/04/22 04:46:46;;;;;;;;;;;9.90;67.50;;;;;;5012819;28;19928;-75
2023/04/22 04:49:11;;;;;;;;;;;10.00;67.60;;;;;;5046390;28;19921;-76
2023/04/22 04:51:37;;;;;;;;;;;10.00;67.60;;;;;;5014836;28;19974;-75
2023/04/22 04:54:02;;;;;;;;;;;10.00;67.60;;;;;;5014684;28;19960;-76
2023/04/22 04:56:29;;;;;;;;;;;10.00;67.60;;;;;;5016468;28;19924;-77
2023/04/22 04:58:55;;;;;;;;;;;10.00;67.60;;;;;;4999091;28;19936;-77
2023/04/22 05:01:20;;;;;;;;;;;10.00;67.60;;;;;;4999111;28;19921;-77
2023/04/22 05:03:46;;;;;;;;;;;10.00;67.60;;;;;;5027281;28;19932;-77
2023/04/22 05:06:11;;;;;;;;;;;10.00;67.60;;;;;;5016158;28;19974;-77
2023/04/22 05:08:37;;;;;;;;;;;10.00;67.60;;;;;;5015443;28;19948;-76
2023/04/22 05:11:02;;;;;;;;;;;10.00;67.60;;;;;;4997890;28;19935;-75
2023/04/22 05:13:28;;;;;;;;;;;10.00;67.60;;;;;;5015179;28;20015;-77
2023/04/22 05:15:54;;;;;;;;;;;10.00;67.60;;;;;;5029920;28;19921;-77
2023/04/22 05:18:19;;;;;;;;;;;10.00;67.60;;;;;;5017419;28;19983;-77
2023/04/22 05:20:45;;;;;;;;;;;10.10;67.60;;;;;;5017482;28;19925;-77
2023/04/22 05:23:15;;;;;;;;;;;10.10;67.60;;;;;;5031596;28;20036;-76
2023/04/22 05:25:41;;;;;;;;;;;10.10;67.60;;;;;;5012683;28;19927;-75
2023/04/22 05:28:06;;;;;;;;;;;10.10;67.60;;;;;;5015216;28;19921;-76
2023/04/22 05:30:32;;;;;;;;;;;10.10;67.60;;;;;;4999977;28;19921;-77
2023/04/22 05:32:57;;;;;;;;;;;10.20;67.60;;;;;;5013204;28;19948;-77
2023/04/22 05:35:23;;;;;;;;;;;10.20;67.60;;;;;;5014381;28;19983;-77
2023/04/22 05:37:48;;;;;;;;;;;10.20;67.60;;;;;;5027744;28;19921;-76
2023/04/22 05:40:14;;;;;;;;;;;10.20;67.60;;;;;;5029012;28;19959;-77
2023/04/22 05:42:39;;;;;;;;;;;10.20;67.60;;;;;;5013358;28;19921;-76
2023/04/22 05:45:05;;;;;;;;;;;10.30;67.60;;;;;;5011082;28;19920;-76
2023/04/22 05:47:30;;;;;;;;;;;10.30;67.60;;;;;;5012732;28;20578;-76
2023/04/22 05:49:56;;;;;;;;;;;10.30;67.50;;;;;;4997347;28;19936;-75
2023/04/22 05:52:21;;;;;;;;;;;10.40;67.60;;;;;;5014867;28;19928;-77
2023/04/22 05:54:47;;;;;;;;;;;10.40;67.60;;;;;;5030835;28;19932;-77
2023/04/22 05:57:12;;;;;;;;;;;10.40;67.50;;;;;;5032463;28;19921;-76
2023/04/22 05:59:38;;;;;;;;;;;10.40;67.50;;;;;;5029209;28;20480;-76
2023/04/22 06:02:03;;;;;;;;;;;10.50;67.50;;;;;;5016698;28;19962;-77
2023/04/22 06:04:29;;;;;;;;;;;10.50;67.50;;;;;;5033642;28;19917;-77
2023/04/22 06:06:54;;;;;;;;;;;10.50;68.30;;;;;;5031545;28;19925;-77
2023/04/22 06:09:20;;;;;;;;;;;10.60;67.50;;;;;;5017511;28;19920;-77
2023/04/22 06:11:45;;;;;;;;;;;10.60;67.50;;;;;;5010624;28;19987;-77
2023/04/22 06:14:12;;;;;;;;;;;10.60;67.40;;;;;;5011200;28;19925;-75
2023/04/22 06:16:37;;;;;;;;;;;10.70;67.40;;;;;;5012678;28;19960;-76
2023/04/22 06:19:03;;;;;;;;;;;10.70;67.40;;;;;;5013046;28;20749;-77
2023/04/22 06:21:28;;;;;;;;;;;10.70;67.40;;;;;;5006594;28;20039;-76
2023/04/22 06:23:54;;;;;;;;;;;10.80;67.40;;;;;;5013382;28;20414;-76
2023/04/22 06:26:20;;;;;;;;;;;10.80;67.40;;;;;;5009444;28;19948;-77
2023/04/22 06:28:45;;;;;;;;;;;10.90;67.40;;;;;;5011906;28;19925;-77
2023/04/22 06:31:11;;;;;;;;;;;10.90;67.30;;;;;;5015418;28;19929;-77
2023/04/22 06:33:36;;;;;;;;;;;10.90;67.30;;;;;;4995803;28;19921;-77
2023/04/22 06:36:03;;;;;;;;;;;11.00;67.30;;;;;;5010416;28;19925;-77
2023/04/22 06:38:29;;;;;;;;;;;11.00;67.30;;;;;;5026290;28;19929;-77
2023/04/22 06:40:54;;;;;;;;;;;11.10;67.30;;;;;;5008211;28;19921;-77
2023/04/22 06:43:20;;;;;;;;;;;11.20;67.30;;;;;;5012767;28;19921;-77
2023/04/22 06:45:45;;;;;;;;;;;11.20;67.30;;;;;;5005456;28;20338;-77
2023/04/22 06:48:11;;;;;;;;;;;11.30;67.20;;;;;;5008945;28;19921;-77
2023/04/22 06:50:36;;;;;;;;;;;11.40;67.20;;;;;;5007242;28;19984;-77
2023/04/22 06:53:02;;;;;;;;;;;11.50;67.20;;;;;;4991196;28;19947;-76
2023/04/22 06:55:27;;;;;;;;;;;11.50;67.10;;;;;;5009788;28;19960;-77
2023/04/22 06:57:53;;;;;;;;;;;11.70;67.90;;;;;;5004938;28;19921;-76
2023/04/22 07:00:18;;;;;;;;;;;11.70;67.00;;;;;;4992000;28;20453;-77
2023/04/22 07:02:44;;;;;;;;;;;11.90;66.90;;;;;;5023296;28;19923;-77
2023/04/22 07:05:09;;;;;;;;;;;12.00;66.90;;;;;;5015623;28;19921;-77
2023/04/22 07:07:35;;;;;;;;;;;12.10;66.80;;;;;;5006952;28;19968;-77
2023/04/22 07:10:00;;;;;;;;;;;12.20;66.80;;;;;;4992123;28;20422;-77
2023/04/22 07:12:26;;;;;;;;;;;12.30;66.60;;;;;;5026276;28;19986;-77
2023/04/22 07:14:51;;;;;;;;;;;12.40;66.60;;;;;;4995717;28;19921;-77
2023/04/22 07:17:20;;;;;;;;;;;12.50;66.50;;;;;;5028155;28;19920;-76
2023/04/22 07:19:46;;;;;;;;;;;12.70;66.50;;;;;;5049656;28;19929;-77
2023/04/22 07:22:11;;;;;;;;;;;12.80;66.40;;;;;;5032524;28;20377;-77
2023/04/22 07:24:38;;;;;;;;;;;12.90;66.30;;;;;;5031149;28;19924;-77
2023/04/22 07:27:03;;;;;;;;;;;13.00;66.20;;;;;;5000964;28;19921;-77
2023/04/22 07:29:29;;;;;;;;;;;13.10;66.10;;;;;;5014228;28;19975;-77
2023/04/22 07:31:54;;;;;;;;;;;13.20;66.00;;;;;;5045400;28;19948;-77
2023/04/22 07:34:20;;;;;;;;;;;13.30;66.10;;;;;;5031637;28;19928;-77
2023/04/22 07:36:45;;;;;;;;;;;13.40;66.00;;;;;;5031564;28;19972;-77
2023/04/22 07:39:11;;;;;;;;;;;13.50;65.90;;;;;;5032056;28;19925;-77
2023/04/22 07:41:36;;;;;;;;;;;13.60;65.80;;;;;;5032054;28;19972;-77
2023/04/22 07:44:02;;;;;;;;;;;13.70;65.80;;;;;;5018819;28;19921;-77
2023/04/22 07:46:28;;;;;;;;;;;13.80;65.70;;;;;;5030988;28;20582;-77
2023/04/22 07:48:53;;;;;;;;;;;13.90;65.70;;;;;;5032633;28;20041;-77
2023/04/22 07:51:18;;;;;;;;;;;14.00;65.60;;;;;;5035305;28;19921;-77
2023/04/22 07:53:44;;;;;;;;;;;14.10;65.50;;;;;;5029933;28;19928;-77
2023/04/22 07:56:10;;;;;;;;;;;14.20;65.40;;;;;;5019639;28;19921;-77
2023/04/22 07:58:35;;;;;;;;;;;14.30;65.30;;;;;;5015433;28;19924;-77
2023/04/22 08:01:00;;;;;;;;;;;14.40;65.20;;;;;;5032221;28;19924;-77
2023/04/22 08:03:26;;;;;;;;;;;14.50;65.20;;;;;;5006058;28;20610;-78
2023/04/22 08:05:52;;;;;;;;;;;14.70;65.10;;;;;;5015027;28;19928;-78
2023/04/22 08:08:17;;;;;;;;;;;14.80;65.00;;;;;;5018299;28;19927;-78
2023/04/22 08:10:42;;;;;;;;;;;14.90;65.00;;;;;;5016224;28;19987;-78
2023/04/22 08:13:08;;;;;;;;;;;15.00;64.80;;;;;;5017280;28;21489;-78
2023/04/22 08:15:33;;;;;;;;;;;15.10;64.70;;;;;;5027938;28;19921;-78
2023/04/22 08:17:59;;;;;;;;;;;15.30;64.70;;;;;;4996810;28;19960;-78
2023/04/22 08:20:24;;;;;;;;;;;15.40;64.60;;;;;;5013692;28;19925;-77
2023/04/22 08:22:52;;;;;;;;;;;15.50;64.40;;;;;;5012031;28;19994;-77
2023/04/22 08:25:17;;;;;;;;;;;15.60;64.40;;;;;;5028775;28;19921;-78
2023/04/22 08:27:42;;;;;;;;;;;15.70;64.20;;;;;;5020072;28;19927;-77
2023/04/22 08:30:08;;;;;;;;;;;15.90;64.20;;;;;;5014245;28;19953;-78
2023/04/22 08:32:34;;;;;;;;;;;16.00;64.00;;;;;;5016210;28;19921;-78
2023/04/22 08:34:59;;;;;;;;;;;16.20;64.00;;;;;;5028190;28;19928;-78
2023/04/22 08:37:25;;;;;;;;;;;16.30;63.80;;;;;;5014699;28;19966;-78
2023/04/22 08:39:51;;;;;;;;;;;16.50;63.80;;;;;;5012697;28;19925;-78
2023/04/22 08:42:16;;;;;;;;;;;16.70;63.60;;;;;;5037684;28;20498;-78
2023/04/22 08:44:41;;;;;;;;;;;16.90;63.50;;;;;;5031876;28;19924;-78
2023/04/22 08:47:07;;;;;;;;;;;17.00;63.30;;;;;;4998580;28;19963;-78
2023/04/22 08:49:33;;;;;;;;;;;17.20;63.20;;;;;;5032772;28;19928;-78
2023/04/22 08:51:59;;;;;;;;;;;17.40;63.00;;;;;;5015258;28;19925;-78
2023/04/22 08:54:24;;;;;;;;;;;17.60;62.90;;;;;;5012946;28;19921;-78
2023/04/22 08:56:50;;;;;;;;;;;17.70;62.80;;;;;;4999960;28;20651;-78
2023/04/22 08:59:16;;;;;;;;;;;17.90;62.60;;;;;;5003349;28;19951;-78
2023/04/22 09:01:41;;;;;;;;;;;18.10;62.50;;;;;;5017218;28;19924;-78
2023/04/22 09:04:10;;;;;;;;;;;18.20;62.40;;;;;;5013062;28;21363;-78
2023/04/22 09:06:35;;;;;;;;;;;18.40;62.30;;;;;;5027922;28;19921;-77
2023/04/22 09:09:01;;;;;;;;;;;18.50;62.10;;;;;;5015220;28;19928;-78
2023/04/22 09:11:27;;;;;;;;;;;18.70;62.10;;;;;;5011993;28;20627;-79
2023/04/22 09:13:55;;;;;;;;;;;18.80;61.80;;;;;;5008301;28;19921;-77
2023/04/22 09:16:20;;;;;;;;;;;18.90;61.70;;;;;;5024020;28;19918;-78
2023/04/22 09:18:46;;;;;;;;;;;19.10;61.60;;;;;;5010770;28;19987;-78
2023/04/22 09:21:11;;;;;;;;;;;19.30;61.60;;;;;;5012226;28;20012;-78
2023/04/22 09:23:44;;;;;;;;;;;19.40;61.40;;;;;;5026357;28;19928;-78
2023/04/22 09:26:10;;;;;;;;;;;19.60;61.20;;;;;;5012894;28;20017;-77
2023/04/22 09:28:35;;;;;;;;;;;19.80;61.10;;;;;;5027419;28;20057;-78
2023/04/22 09:31:01;;;;;;;;;;;19.90;60.90;;;;;;5013239;28;19921;-78
2023/04/22 09:33:26;;;;;;;;;;;20.10;60.80;;;;;;5025169;28;20042;-78
2023/04/22 09:35:52;;;;;;;;;;;20.30;60.60;;;;;;5010870;28;20669;-78
2023/04/22 09:38:18;;;;;;;;;;;20.50;60.50;;;;;;5027247;28;19944;-78
2023/04/22 09:40:44;;;;;;;;;;;20.60;60.30;;;;;;5013317;28;20008;-77
2023/04/22 09:43:10;;;;;;;;;;;20.80;60.20;;;;;;5027451;28;20047;-79
2023/04/22 09:45:36;;;;;;;;;;;20.90;60.10;;;;;;5009280;28;20272;-78
2023/04/22 09:48:02;;;;;;;;;;;21.10;59.90;;;;;;5011283;28;19925;-78
2023/04/22 09:50:27;;;;;;;;;;;21.30;59.90;;;;;;5012887;28;20008;-78
2023/04/22 09:52:54;;;;;;;;;;;21.50;59.80;;;;;;5013546;28;20304;-77
2023/04/22 09:55:21;;;;;;;;;;;21.70;59.60;;;;;;4992975;28;19921;-78
2023/04/22 09:57:46;;;;;;;;;;;21.80;59.40;;;;;;4997542;28;20391;-78
2023/04/22 10:00:12;;;;;;;;;;;22.00;59.30;;;;;;5012079;28;19925;-78
2023/04/22 10:02:38;;;;;;;;;;;22.20;59.20;;;;;;5013255;28;19948;-78
2023/04/22 10:05:04;;;;;;;;;;;22.30;59.10;;;;;;4999196;28;19925;-78
2023/04/22 10:07:30;;;;;;;;;;;22.50;59.00;;;;;;4997781;28;19928;-79
2023/04/22 10:09:56;;;;;;;;;;;22.60;58.80;;;;;;4999618;28;19921;-78
2023/04/22 10:12:21;;;;;;;;;;;22.70;58.80;;;;;;4980664;28;19932;-78
2023/04/22 10:14:47;;;;;;;;;;;22.80;58.70;;;;;;4985602;28;19921;-78
2023/04/22 10:17:12;;;;;;;;;;;22.90;58.60;;;;;;4997085;28;20027;-79
2023/04/22 10:19:38;;;;;;;;;;;23.10;58.50;;;;;;4997432;28;19983;-79
2023/04/22 10:22:03;;;;;;;;;;;23.20;58.40;;;;;;5016200;28;19922;-78
2023/04/22 10:24:33;;;;;;;;;;;23.30;58.40;;;;;;4984898;28;19926;-78
2023/04/22 10:27:01;;;;;;;;;;;23.40;58.30;;;;;;4993356;28;19925;-79
2023/04/22 10:29:34;;;;;;;;;;;23.50;58.20;;;;;;5000995;28;19932;-78
2023/04/22 10:32:04;;;;;;;;;;;23.60;58.10;;;;;;5018291;28;19942;-79
2023/04/22 10:34:33;;;;;;;;;;;23.80;58.00;;;;;;5010400;28;19928;-78
2023/04/22 10:37:04;;;;;;;;;;;23.90;57.90;;;;;;5013538;28;19928;-77
2023/04/22 10:39:30;;;;;;;;;;;24.00;57.90;;;;;;5011923;28;19991;-78
2023/04/22 10:42:01;;;;;;;;;;;24.10;57.80;;;;;;5010904;28;19933;-78
2023/04/22 10:44:27;;;;;;;;;;;24.20;57.60;;;;;;5015804;28;19935;-77
2023/04/22 10:46:56;;;;;;;;;;;24.20;57.60;;;;;;5015194;28;19929;-77
2023/04/22 10:49:22;;;;;;;;;;;24.20;57.50;;;;;;4995648;28;19921;-77
2023/04/22 10:51:50;;;;;;;;;;;24.40;57.50;;;;;;4994544;28;19921;-77
2023/04/22 10:54:35;;;;;;;;;;;24.40;57.40;;;;;;5018710;28;20539;-77
2023/04/22 10:57:06;;;;;;;;;;;24.50;57.40;;;;;;5019097;28;19921;-76
2023/04/22 10:59:33;;;;;;;;;;;24.60;57.40;;;;;;5017474;28;20001;-78
2023/04/22 11:02:04;;;;;;;;;;;24.70;57.30;;;;;;5021836;28;19921;-77
2023/04/22 11:04:30;;;;;;;;;;;24.80;57.20;;;;;;5005804;28;19924;-78
2023/04/22 11:07:15;;;;;;;;;;;24.90;57.10;;;;;;4997872;28;19925;-78
2023/04/22 11:09:42;;;;;;;;;;;25.00;57.00;;;;;;5015191;28;20347;-76
2023/04/22 11:12:26;;;;;;;;;;;25.10;56.90;;;;;;5020352;28;20548;-76
2023/04/22 11:14:52;;;;;;;;;;;25.10;56.90;;;;;;5017103;28;19921;-77
2023/04/22 11:17:18;;;;;;;;;;;25.20;56.90;;;;;;5012930;28;20350;-77
2023/04/22 11:19:43;;;;;;;;;;;25.30;56.80;;;;;;4999931;28;19932;-76
2023/04/22 11:22:09;;;;;;;;;;;25.30;56.80;;;;;;5015396;28;19995;-78
2023/04/22 11:24:35;;;;;;;;;;;25.40;56.70;;;;;;5013361;28;20080;-77
2023/04/22 11:27:00;;;;;;;;;;;25.40;56.70;;;;;;4999980;28;20378;-76
2023/04/22 11:29:25;;;;;;;;;;;25.40;56.60;;;;;;5005604;28;19924;-78
2023/04/22 11:31:51;;;;;;;;;;;25.50;56.60;;;;;;5003192;28;19921;-78
2023/04/22 11:34:17;;;;;;;;;;;25.50;56.60;;;;;;4998678;28;20510;-78
2023/04/22 11:36:44;;;;;;;;;;;25.50;56.60;;;;;;4996327;28;19929;-78
2023/04/22 11:39:13;;;;;;;;;;;25.50;56.60;;;;;;4998162;28;19928;-78
2023/04/22 11:41:39;;;;;;;;;;;25.60;56.60;;;;;;4989019;28;21583;-78
2023/04/22 11:44:05;;;;;;;;;;;25.70;56.50;;;;;;5019549;28;19974;-78
2023/04/22 11:46:37;;;;;;;;;;;25.70;56.50;;;;;;5004093;28;19960;-78
2023/04/22 11:49:14;;;;;;;;;;;25.70;56.50;;;;;;5003663;28;19975;-77
2023/04/22 11:51:55;;;;;;;;;;;25.70;56.50;;;;;;5012638;28;19917;-79
2023/04/22 11:54:30;;;;;;;;;;;25.80;56.50;;;;;;5013717;28;19970;-78
2023/04/22 11:56:55;;;;;;;;;;;25.80;56.40;;;;;;5022203;28;19917;-78
2023/04/22 11:59:23;;;;;;;;;;;25.80;56.40;;;;;;5015482;28;19935;-76
2023/04/22 12:01:48;;;;;;;;;;;25.90;56.40;;;;;;4988897;28;19917;-77
2023/04/22 12:04:14;;;;;;;;;;;25.90;56.30;;;;;;5002511;28;19921;-77
2023/04/22 12:06:40;;;;;;;;;;;26.00;56.30;;;;;;5005296;28;20886;-77
2023/04/22 12:09:06;;;;;;;;;;;26.00;56.20;;;;;;5015224;28;19925;-77
2023/04/22 12:11:32;;;;;;;;;;;26.00;56.20;;;;;;5013707;28;19929;-77
2023/04/22 12:14:03;;;;;;;;;;;26.00;56.20;;;;;;4984617;28;19963;-78
2023/04/22 12:16:28;;;;;;;;;;;26.00;56.10;;;;;;5003786;28;19929;-78
2023/04/22 12:18:54;;;;;;;;;;;25.90;56.10;;;;;;4999562;28;19929;-78
2023/04/22 12:21:22;;;;;;;;;;;26.00;56.20;;;;;;4986703;28;19921;-78
2023/04/22 12:23:50;;;;;;;;;;;26.10;56.90;;;;;;5000462;28;20315;-78
2023/04/22 12:26:16;;;;;;;;;;;26.30;56.10;;;;;;4988950;28;20618;-78
2023/04/22 12:28:41;;;;;;;;;;;26.40;56.00;;;;;;5016492;28;19974;-79
2023/04/22 12:31:07;;;;;;;;;;;26.60;55.80;;;;;;5002715;28;19921;-78
2023/04/22 12:33:33;;;;;;;;;;;26.70;55.70;;;;;;5033511;28;19927;-78
2023/04/22 12:35:58;;;;;;;;;;;26.70;55.50;;;;;;4987170;28;19924;-78
2023/04/22 12:38:24;;;;;;;;;;;26.90;55.60;;;;;;5011202;28;19948;-78
2023/04/22 12:40:50;;;;;;;;;;;27.00;55.50;;;;;;4998978;28;20417;-79
2023/04/22 12:43:15;;;;;;;;;;;27.10;55.40;;;;;;4984602;28;19929;-77
2023/04/22 12:45:41;;;;;;;;;;;27.20;55.20;;;;;;5003322;28;19928;-77
2023/04/22 12:48:06;;;;;;;;;;;27.20;55.00;;;;;;5020665;28;19925;-78
2023/04/22 12:50:32;;;;;;;;;;;27.20;55.00;;;;;;4998462;28;19957;-78
2023/04/22 12:52:57;;;;;;;;;;;27.30;55.00;;;;;;4998881;28;19920;-78
2023/04/22 12:55:23;;;;;;;;;;;27.40;55.10;;;;;;5014542;28;20514;-78
2023/04/22 12:57:50;;;;;;;;;;;27.50;55.10;;;;;;5016409;28;19921;-79
2023/04/22 13:00:15;;;;;;;;;;;27.60;55.00;;;;;;4984268;28;19932;-77
2023/04/22 13:02:41;;;;;;;;;;;27.80;54.90;;;;;;5016506;28;19921;-78
2023/04/22 13:05:07;;;;;;;;;;;27.90;54.70;;;;;;4986197;28;19925;-79
2023/04/22 13:07:33;;;;;;;;;;;27.90;54.60;;;;;;5003455;28;19925;-78
2023/04/22 13:09:58;;;;;;;;;;;27.90;54.50;;;;;;4957161;28;1783391;-79
2023/04/22 13:12:24;;;;;;;;;;;28.00;54.60;;;;;;5017592;28;19924;-78
2023/04/22 13:14:49;;;;;;;;;;;28.00;54.50;;;;;;5018558;28;19931;-79
2023/04/22 13:17:15;;;;;;;;;;;28.10;54.50;;;;;;5006606;28;19920;-79
2023/04/22 13:19:40;;;;;;;;;;;28.20;54.40;;;;;;5018439;28;20416;-78
2023/04/22 13:22:06;;;;;;;;;;;28.40;54.40;;;;;;5001394;28;19930;-78
2023/04/22 13:24:31;;;;;;;;;;;28.60;54.30;;;;;;4985884;28;19932;-79
2023/04/22 13:26:57;;;;;;;;;;;28.70;54.20;;;;;;4998458;28;19926;-78
2023/04/22 13:29:23;;;;;;;;;;;28.80;54.00;;;;;;5002502;28;19921;-78
2023/04/22 13:31:49;;;;;;;;;;;29.00;54.00;;;;;;4986404;28;20766;-78
2023/04/22 13:34:14;;;;;;;;;;;29.10;53.90;;;;;;5003966;28;19974;-78
2023/04/22 13:36:40;;;;;;;;;;;29.20;53.70;;;;;;4997340;28;20047;-78
2023/04/22 13:39:07;;;;;;;;;;;29.30;53.60;;;;;;5000058;28;19979;-76
2023/04/22 13:41:32;;;;;;;;;;;29.30;53.50;;;;;;5015030;28;20046;-79
2023/04/22 13:43:58;;;;;;;;;;;29.40;53.60;;;;;;4985094;28;20084;-78
2023/04/22 13:46:24;;;;;;;;;;;29.40;53.50;;;;;;4998022;28;19921;-78
2023/04/22 13:48:49;;;;;;;;;;;29.40;53.40;;;;;;5002482;28;19922;-78
2023/04/22 13:51:15;;;;;;;;;;;29.30;53.30;;;;;;5012422;28;19925;-79
2023/04/22 13:53:40;;;;;;;;;;;29.30;53.30;;;;;;5016107;28;19921;-78
2023/04/22 13:56:06;;;;;;;;;;;29.20;53.40;;;;;;4993975;28;20395;-78
2023/04/22 13:58:31;;;;;;;;;;;29.20;53.40;;;;;;4997866;28;19920;-78
2023/04/22 14:00:57;;;;;;;;;;;29.00;53.20;;;;;;5012464;28;19931;-78
2023/04/22 14:03:22;;;;;;;;;;;28.90;53.40;;;;;;4984081;28;19980;-78
2023/04/22 14:05:48;;;;;;;;;;;28.70;53.50;;;;;;4998803;28;19922;-78
2023/04/22 14:08:13;;;;;;;;;;;28.70;53.60;;;;;;5019055;28;19917;-78
2023/04/22 14:10:39;;;;;;;;;;;28.70;53.60;;;;;;5019545;28;19935;-78
2023/04/22 14:13:05;;;;;;;;;;;28.60;53.60;;;;;;5033318;28;19967;-78